sensor_id;sensor_type;location;lat;lon;timestamp;pressure;altitude;pressure_sealevel;temperature;humidity
64713;BME280;51140;45.340;5.980;2023-11-18T00:01:43;99189.22;;;4.28;95.12
64713;BME280;51140;45.340;5.980;2023-11-18T00:04:09;99188.19;;;4.29;94.43
64713;BME280;51140;45.340;5.980;2023-11-18T00:06:43;99198.53;;;4.37;94.41
64713;BME280;51140;45.340;5.980;2023-11-18T00:09:12;99209.84;;;4.37;93.77
64713;BME280;51140;45.340;5.980;2023-11-18T00:11:41;99204.59;;;4.31;93.73
64713;BME280;51140;45.340;5.980;2023-11-18T00:14:08;99193.84;;;4.26;94.84
64713;BME280;51140;45.340;5.980;2023-11-18T00:16:33;99199.91;;;4.26;94.80
64713;BME280;51140;45.340;5.980;2023-11-18T00:18:59;99200.91;;;4.19;94.95
64713;BME280;51140;45.340;5.980;2023-11-18T00:21:25;99202.31;;;4.15;95.32
64713;BME280;51140;45.340;5.980;2023-11-18T00:23:50;99195.03;;;4.17;95.14
64713;BME280;51140;45.340;5.980;2023-11-18T00:26:16;99195.28;;;4.35;94.94
64713;BME280;51140;45.340;5.980;2023-11-18T00:28:41;99216.69;;;4.19;94.78
64713;BME280;51140;45.340;5.980;2023-11-18T00:31:07;99204.34;;;4.26;94.43
64713;BME280;51140;45.340;5.980;2023-11-18T00:33:32;99202.38;;;4.28;94.95
64713;BME280;51140;45.340;5.980;2023-11-18T00:35:58;99197.47;;;4.18;94.86
64713;BME280;51140;45.340;5.980;2023-11-18T00:38:25;99182.31;;;4.20;95.04
64713;BME280;51140;45.340;5.980;2023-11-18T00:40:51;99172.81;;;4.26;94.96
64713;BME280;51140;45.340;5.980;2023-11-18T00:43:16;99172.81;;;4.26;95.01
64713;BME280;51140;45.340;5.980;2023-11-18T00:45:42;99167.97;;;4.16;95.21
64713;BME280;51140;45.340;5.980;2023-11-18T00:48:08;99174.00;;;4.10;95.79
64713;BME280;51140;45.340;5.980;2023-11-18T00:50:34;99180.28;;;4.16;95.86
64713;BME280;51140;45.340;5.980;2023-11-18T00:52:59;99182.69;;;4.11;95.62
64713;BME280;51140;45.340;5.980;2023-11-18T00:55:25;99190.97;;;4.08;96.18
64713;BME280;51140;45.340;5.980;2023-11-18T00:57:51;99201.47;;;4.08;95.90
64713;BME280;51140;45.340;5.980;2023-11-18T01:00:16;99201.69;;;4.13;95.77
64713;BME280;51140;45.340;5.980;2023-11-18T01:02:47;99216.44;;;4.07;96.37
64713;BME280;51140;45.340;5.980;2023-11-18T01:05:14;99222.13;;;4.11;94.90
64713;BME280;51140;45.340;5.980;2023-11-18T01:07:40;99215.41;;;4.01;95.04
64713;BME280;51140;45.340;5.980;2023-11-18T01:10:06;99215.00;;;4.04;95.41
64713;BME280;51140;45.340;5.980;2023-11-18T01:12:32;99216.00;;;4.03;94.80
64713;BME280;51140;45.340;5.980;2023-11-18T01:14:58;99229.53;;;4.00;95.89
64713;BME280;51140;45.340;5.980;2023-11-18T01:17:23;99229.31;;;3.95;95.15
64713;BME280;51140;45.340;5.980;2023-11-18T01:19:49;99240.03;;;4.00;94.91
64713;BME280;51140;45.340;5.980;2023-11-18T01:22:15;99239.25;;;4.07;94.18
64713;BME280;51140;45.340;5.980;2023-11-18T01:24:40;99239.25;;;4.07;95.07
64713;BME280;51140;45.340;5.980;2023-11-18T01:27:06;99242.09;;;4.12;94.66
64713;BME280;51140;45.340;5.980;2023-11-18T01:29:35;99241.28;;;4.04;95.80
64713;BME280;51140;45.340;5.980;2023-11-18T01:32:00;99233.28;;;4.32;94.31
64713;BME280;51140;45.340;5.980;2023-11-18T01:34:26;99244.16;;;4.23;94.67
64713;BME280;51140;45.340;5.980;2023-11-18T01:36:53;99254.41;;;4.04;95.28
64713;BME280;51140;45.340;5.980;2023-11-18T01:39:18;99240.81;;;3.94;95.71
64713;BME280;51140;45.340;5.980;2023-11-18T01:41:45;99247.31;;;3.98;95.54
64713;BME280;51140;45.340;5.980;2023-11-18T01:44:11;99237.19;;;3.95;95.46
64713;BME280;51140;45.340;5.980;2023-11-18T01:46:39;99241.28;;;4.04;95.15
64713;BME280;51140;45.340;5.980;2023-11-18T01:49:05;99252.22;;;4.15;94.49
64713;BME280;51140;45.340;5.980;2023-11-18T01:51:32;99246.66;;;4.31;94.97
64713;BME280;51140;45.340;5.980;2023-11-18T01:54:00;99252.03;;;4.16;94.33
64713;BME280;51140;45.340;5.980;2023-11-18T01:56:27;99240.16;;;4.27;94.03
64713;BME280;51140;45.340;5.980;2023-11-18T01:58:53;99242.19;;;4.31;94.10
64713;BME280;51140;45.340;5.980;2023-11-18T02:01:19;99239.75;;;4.30;93.56
64713;BME280;51140;45.340;5.980;2023-11-18T02:03:45;99243.59;;;4.27;92.49
64713;BME280;51140;45.340;5.980;2023-11-18T02:06:13;99235.78;;;4.47;91.70
64713;BME280;51140;45.340;5.980;2023-11-18T02:08:39;99241.22;;;4.39;92.23
64713;BME280;51140;45.340;5.980;2023-11-18T02:11:22;99235.06;;;4.25;92.38
64713;BME280;51140;45.340;5.980;2023-11-18T02:13:53;99229.81;;;4.25;93.81
64713;BME280;51140;45.340;5.980;2023-11-18T02:16:19;99219.16;;;4.33;92.10
64713;BME280;51140;45.340;5.980;2023-11-18T02:18:46;99223.78;;;4.31;92.79
64713;BME280;51140;45.340;5.980;2023-11-18T02:21:13;99234.69;;;4.28;92.07
64713;BME280;51140;45.340;5.980;2023-11-18T02:23:40;99234.47;;;4.23;91.99
64713;BME280;51140;45.340;5.980;2023-11-18T02:26:07;99226.34;;;4.12;92.43
64713;BME280;51140;45.340;5.980;2023-11-18T02:28:32;99235.91;;;4.19;92.55
64713;BME280;51140;45.340;5.980;2023-11-18T02:31:12;99226.91;;;4.00;93.00
64713;BME280;51140;45.340;5.980;2023-11-18T02:33:46;99225.94;;;4.08;93.19
64713;BME280;51140;45.340;5.980;2023-11-18T02:36:31;99215.81;;;4.05;93.32
64713;BME280;51140;45.340;5.980;2023-11-18T02:39:12;99209.50;;;3.93;94.52
64713;BME280;51140;45.340;5.980;2023-11-18T02:41:47;99213.59;;;4.09;93.61
64713;BME280;51140;45.340;5.980;2023-11-18T02:44:13;99209.38;;;4.14;92.21
64713;BME280;51140;45.340;5.980;2023-11-18T02:46:43;99223.53;;;4.13;92.04
64713;BME280;51140;45.340;5.980;2023-11-18T02:49:09;99223.94;;;4.17;91.70
64713;BME280;51140;45.340;5.980;2023-11-18T02:51:35;99225.19;;;4.34;91.03
64713;BME280;51140;45.340;5.980;2023-11-18T02:54:07;99231.50;;;4.33;91.54
64713;BME280;51140;45.340;5.980;2023-11-18T02:56:36;99244.16;;;4.23;92.33
64713;BME280;51140;45.340;5.980;2023-11-18T02:59:01;99231.00;;;4.10;93.17
64713;BME280;51140;45.340;5.980;2023-11-18T03:01:27;99220.72;;;4.21;92.56
64713;BME280;51140;45.340;5.980;2023-11-18T03:03:52;99220.50;;;4.16;91.68
64713;BME280;51140;45.340;5.980;2023-11-18T03:06:18;99225.75;;;4.10;92.18
64713;BME280;51140;45.340;5.980;2023-11-18T03:08:43;99232.81;;;4.09;92.43
64713;BME280;51140;45.340;5.980;2023-11-18T03:11:09;99236.66;;;4.13;91.98
64713;BME280;51140;45.340;5.980;2023-11-18T03:13:35;99230.44;;;4.21;92.61
64713;BME280;51140;45.340;5.980;2023-11-18T03:16:01;99226.72;;;4.02;92.48
64713;BME280;51140;45.340;5.980;2023-11-18T03:18:27;99224.16;;;4.22;93.48
64713;BME280;51140;45.340;5.980;2023-11-18T03:20:53;99220.09;;;4.13;93.18
64713;BME280;51140;45.340;5.980;2023-11-18T03:23:19;99217.63;;;4.11;93.71
64713;BME280;51140;45.340;5.980;2023-11-18T03:25:44;99227.47;;;3.89;93.43
64713;BME280;51140;45.340;5.980;2023-11-18T03:28:10;99234.13;;;3.92;92.86
64713;BME280;51140;45.340;5.980;2023-11-18T03:30:35;99227.06;;;3.92;94.48
64713;BME280;51140;45.340;5.980;2023-11-18T03:33:02;99215.88;;;3.77;95.73
64713;BME280;51140;45.340;5.980;2023-11-18T03:35:29;99215.72;;;3.85;94.32
64713;BME280;51140;45.340;5.980;2023-11-18T03:37:55;99219.38;;;3.84;93.98
64713;BME280;51140;45.340;5.980;2023-11-18T03:40:20;99229.91;;;3.97;93.82
64713;BME280;51140;45.340;5.980;2023-11-18T03:42:45;99219.63;;;4.02;92.58
64713;BME280;51140;45.340;5.980;2023-11-18T03:45:13;99217.00;;;4.02;92.49
64713;BME280;51140;45.340;5.980;2023-11-18T03:47:40;99223.25;;;3.95;92.76
64713;BME280;51140;45.340;5.980;2023-11-18T03:50:05;99220.19;;;3.85;92.75
64713;BME280;51140;45.340;5.980;2023-11-18T03:52:33;99227.28;;;3.97;93.16
64713;BME280;51140;45.340;5.980;2023-11-18T03:54:59;99227.94;;;3.99;92.88
64713;BME280;51140;45.340;5.980;2023-11-18T03:57:24;99220.22;;;3.98;93.05
64713;BME280;51140;45.340;5.980;2023-11-18T03:59:50;99223.31;;;4.08;92.86
64713;BME280;51140;45.340;5.980;2023-11-18T04:02:15;99226.88;;;3.94;93.28
64713;BME280;51140;45.340;5.980;2023-11-18T04:04:41;99213.81;;;3.66;94.84
64713;BME280;51140;45.340;5.980;2023-11-18T04:07:06;99220.78;;;3.53;95.17
64713;BME280;51140;45.340;5.980;2023-11-18T04:09:32;99200.22;;;3.56;94.77
64713;BME280;51140;45.340;5.980;2023-11-18T04:11:57;99205.75;;;3.33;96.25
64713;BME280;51140;45.340;5.980;2023-11-18T04:14:23;99216.91;;;3.42;95.72
64713;BME280;51140;45.340;5.980;2023-11-18T04:16:50;99210.22;;;3.74;95.04
64713;BME280;51140;45.340;5.980;2023-11-18T04:19:16;99216.25;;;3.68;94.27
64713;BME280;51140;45.340;5.980;2023-11-18T04:21:41;99221.34;;;3.41;95.26
64713;BME280;51140;45.340;5.980;2023-11-18T04:24:07;99225.56;;;3.15;97.13
64713;BME280;51140;45.340;5.980;2023-11-18T04:26:32;99230.84;;;2.94;97.90
64713;BME280;51140;45.340;5.980;2023-11-18T04:28:58;99230.09;;;3.00;99.00
64713;BME280;51140;45.340;5.980;2023-11-18T04:31:26;99221.03;;;3.30;96.36
64713;BME280;51140;45.340;5.980;2023-11-18T04:33:52;99229.25;;;3.48;96.07
64713;BME280;51140;45.340;5.980;2023-11-18T04:36:18;99222.81;;;3.51;94.93
64713;BME280;51140;45.340;5.980;2023-11-18T04:38:47;99217.78;;;3.56;95.27
64713;BME280;51140;45.340;5.980;2023-11-18T04:41:12;99229.09;;;3.56;95.56
64713;BME280;51140;45.340;5.980;2023-11-18T04:43:37;99231.72;;;3.56;96.13
64713;BME280;51140;45.340;5.980;2023-11-18T04:46:05;99235.19;;;3.63;95.57
64713;BME280;51140;45.340;5.980;2023-11-18T04:48:31;99236.63;;;3.66;95.30
64713;BME280;51140;45.340;5.980;2023-11-18T04:50:56;99234.75;;;3.53;94.88
64713;BME280;51140;45.340;5.980;2023-11-18T04:53:21;99238.94;;;3.47;95.64
64713;BME280;51140;45.340;5.980;2023-11-18T04:55:47;99244.81;;;3.22;96.29
64713;BME280;51140;45.340;5.980;2023-11-18T04:58:12;99247.53;;;3.35;95.31
64713;BME280;51140;45.340;5.980;2023-11-18T05:00:38;99253.28;;;3.52;96.52
64713;BME280;51140;45.340;5.980;2023-11-18T05:03:05;99265.28;;;3.12;96.69
64713;BME280;51140;45.340;5.980;2023-11-18T05:05:34;99264.78;;;3.23;97.69
64713;BME280;51140;45.340;5.980;2023-11-18T05:08:03;99266.66;;;3.29;96.22
64713;BME280;51140;45.340;5.980;2023-11-18T05:10:28;99264.63;;;3.03;96.85
64713;BME280;51140;45.340;5.980;2023-11-18T05:12:53;99257.94;;;3.22;96.90
64713;BME280;51140;45.340;5.980;2023-11-18T05:15:22;99248.38;;;3.14;96.47
64713;BME280;51140;45.340;5.980;2023-11-18T05:17:53;99261.94;;;2.75;98.88
64713;BME280;51140;45.340;5.980;2023-11-18T05:20:18;99256.50;;;2.56;99.40
64713;BME280;51140;45.340;5.980;2023-11-18T05:22:44;99252.97;;;2.84;98.81
64713;BME280;51140;45.340;5.980;2023-11-18T05:25:09;99247.81;;;2.98;99.06
64713;BME280;51140;45.340;5.980;2023-11-18T05:27:38;99232.59;;;3.08;98.02
64713;BME280;51140;45.340;5.980;2023-11-18T05:30:10;99236.94;;;3.22;97.22
64713;BME280;51140;45.340;5.980;2023-11-18T05:32:35;99229.81;;;3.16;96.09
64713;BME280;51140;45.340;5.980;2023-11-18T05:35:02;99223.22;;;2.99;97.07
64713;BME280;51140;45.340;5.980;2023-11-18T05:37:30;99220.56;;;3.20;97.30
64713;BME280;51140;45.340;5.980;2023-11-18T05:40:00;99236.09;;;2.94;97.60
64713;BME280;51140;45.340;5.980;2023-11-18T05:42:31;99234.66;;;2.70;98.61
64713;BME280;51140;45.340;5.980;2023-11-18T05:44:56;99235.56;;;2.41;100.00
64713;BME280;51140;45.340;5.980;2023-11-18T05:47:25;99233.69;;;2.71;100.00
64713;BME280;51140;45.340;5.980;2023-11-18T05:49:52;99201.97;;;3.15;98.04
64713;BME280;51140;45.340;5.980;2023-11-18T05:52:18;99188.69;;;3.23;96.91
64713;BME280;51140;45.340;5.980;2023-11-18T05:54:45;99218.44;;;3.09;97.07
64713;BME280;51140;45.340;5.980;2023-11-18T05:57:12;99224.66;;;3.01;97.96
64713;BME280;51140;45.340;5.980;2023-11-18T05:59:37;99218.75;;;3.20;97.84
64713;BME280;51140;45.340;5.980;2023-11-18T06:02:03;99224.06;;;3.06;98.23
64713;BME280;51140;45.340;5.980;2023-11-18T06:04:28;99241.69;;;3.12;98.77
64713;BME280;51140;45.340;5.980;2023-11-18T06:06:54;99252.56;;;3.09;98.17
64713;BME280;51140;45.340;5.980;2023-11-18T06:09:19;99248.41;;;2.93;98.82
64713;BME280;51140;45.340;5.980;2023-11-18T06:11:47;99254.56;;;3.34;97.98
64713;BME280;51140;45.340;5.980;2023-11-18T06:14:12;99259.44;;;3.10;97.96
64713;BME280;51140;45.340;5.980;2023-11-18T06:16:38;99252.91;;;3.27;97.03
64713;BME280;51140;45.340;5.980;2023-11-18T06:19:06;99276.38;;;3.35;96.75
64713;BME280;51140;45.340;5.980;2023-11-18T06:21:32;99271.25;;;3.48;96.37
64713;BME280;51140;45.340;5.980;2023-11-18T06:23:58;99275.63;;;3.13;95.84
64713;BME280;51140;45.340;5.980;2023-11-18T06:26:24;99266.16;;;2.55;99.56
64713;BME280;51140;45.340;5.980;2023-11-18T06:28:52;99257.44;;;2.48;99.96
64713;BME280;51140;45.340;5.980;2023-11-18T06:31:19;99260.34;;;2.60;100.00
64713;BME280;51140;45.340;5.980;2023-11-18T06:33:46;99249.88;;;2.60;100.00
64713;BME280;51140;45.340;5.980;2023-11-18T06:38:45;99231.72;;;2.58;100.00
64713;BME280;51140;45.340;5.980;2023-11-18T06:41:11;99235.31;;;2.36;100.00
64713;BME280;51140;45.340;5.980;2023-11-18T06:43:45;99233.78;;;2.42;100.00
64713;BME280;51140;45.340;5.980;2023-11-18T06:46:32;99239.00;;;2.63;99.25
64713;BME280;51140;45.340;5.980;2023-11-18T06:48:59;99227.56;;;2.28;100.00
64713;BME280;51140;45.340;5.980;2023-11-18T06:51:28;99232.06;;;2.34;100.00
64713;BME280;51140;45.340;5.980;2023-11-18T06:53:54;99228.09;;;2.80;100.00
64713;BME280;51140;45.340;5.980;2023-11-18T06:56:23;99225.25;;;2.97;99.06
64713;BME280;51140;45.340;5.980;2023-11-18T06:58:49;99228.84;;;2.96;98.78
64713;BME280;51140;45.340;5.980;2023-11-18T07:01:15;99211.91;;;3.19;97.83
64713;BME280;51140;45.340;5.980;2023-11-18T07:03:41;99221.56;;;3.19;97.97
64713;BME280;51140;45.340;5.980;2023-11-18T07:06:07;99213.38;;;3.63;97.71
64713;BME280;51140;45.340;5.980;2023-11-18T07:08:35;99225.00;;;3.81;98.02
64713;BME280;51140;45.340;5.980;2023-11-18T07:11:01;99226.75;;;3.40;97.33
64713;BME280;51140;45.340;5.980;2023-11-18T07:13:27;99215.22;;;3.62;96.42
64713;BME280;51140;45.340;5.980;2023-11-18T07:15:52;99231.34;;;3.59;96.55
64713;BME280;51140;45.340;5.980;2023-11-18T07:18:19;99257.06;;;3.77;95.73
64713;BME280;51140;45.340;5.980;2023-11-18T07:20:50;99261.53;;;3.42;96.50
64713;BME280;51140;45.340;5.980;2023-11-18T07:23:19;99277.31;;;3.00;96.96
64713;BME280;51140;45.340;5.980;2023-11-18T07:25:45;99282.41;;;2.86;98.87
64713;BME280;51140;45.340;5.980;2023-11-18T07:28:14;99284.53;;;2.98;99.84
64713;BME280;51140;45.340;5.980;2023-11-18T07:30:43;99276.44;;;2.93;100.00
64713;BME280;51140;45.340;5.980;2023-11-18T07:33:16;99282.22;;;3.09;99.97
64713;BME280;51140;45.340;5.980;2023-11-18T07:35:42;99294.69;;;3.50;99.32
64713;BME280;51140;45.340;5.980;2023-11-18T07:38:08;99299.03;;;3.64;96.99
64713;BME280;51140;45.340;5.980;2023-11-18T07:40:36;99301.13;;;3.47;96.43
64713;BME280;51140;45.340;5.980;2023-11-18T07:43:02;99301.28;;;3.18;98.55
64713;BME280;51140;45.340;5.980;2023-11-18T07:45:34;99293.41;;;3.18;99.54
64713;BME280;51140;45.340;5.980;2023-11-18T07:48:03;99288.59;;;3.49;99.58
64713;BME280;51140;45.340;5.980;2023-11-18T07:50:31;99293.34;;;3.88;99.21
64713;BME280;51140;45.340;5.980;2023-11-18T07:52:57;99292.66;;;4.14;95.61
64713;BME280;51140;45.340;5.980;2023-11-18T07:55:23;99294.88;;;4.17;95.51
64713;BME280;51140;45.340;5.980;2023-11-18T07:57:48;99302.63;;;4.31;95.71
64713;BME280;51140;45.340;5.980;2023-11-18T08:00:14;99294.88;;;4.17;94.63
64713;BME280;51140;45.340;5.980;2023-11-18T08:02:40;99301.44;;;3.93;94.67
64713;BME280;51140;45.340;5.980;2023-11-18T08:05:05;99304.50;;;3.96;95.84
64713;BME280;51140;45.340;5.980;2023-11-18T08:07:38;99292.31;;;4.30;95.53
64713;BME280;51140;45.340;5.980;2023-11-18T08:10:05;99287.97;;;4.50;94.90
64713;BME280;51140;45.340;5.980;2023-11-18T08:12:32;99286.94;;;4.51;93.86
64713;BME280;51140;45.340;5.980;2023-11-18T08:14:57;99288.03;;;4.76;94.19
64713;BME280;51140;45.340;5.980;2023-11-18T08:17:24;99296.16;;;4.81;94.35
64713;BME280;51140;45.340;5.980;2023-11-18T08:19:51;99286.00;;;4.78;92.32
64713;BME280;51140;45.340;5.980;2023-11-18T08:22:17;99295.72;;;4.78;94.36
64713;BME280;51140;45.340;5.980;2023-11-18T08:24:47;99295.31;;;4.74;95.40
64713;BME280;51140;45.340;5.980;2023-11-18T08:27:13;99297.56;;;4.84;95.11
64713;BME280;51140;45.340;5.980;2023-11-18T08:29:39;99283.63;;;5.03;94.30
64713;BME280;51140;45.340;5.980;2023-11-18T08:32:05;99284.44;;;5.03;95.27
64713;BME280;51140;45.340;5.980;2023-11-18T08:34:32;99291.34;;;5.04;96.47
64713;BME280;51140;45.340;5.980;2023-11-18T08:36:59;99282.81;;;4.96;94.48
64713;BME280;51140;45.340;5.980;2023-11-18T08:39:25;99290.13;;;5.13;93.26
64713;BME280;51140;45.340;5.980;2023-11-18T08:41:51;99293.75;;;5.06;92.86
64713;BME280;51140;45.340;5.980;2023-11-18T08:44:17;99286.84;;;4.92;92.51
64713;BME280;51140;45.340;5.980;2023-11-18T08:46:43;99282.84;;;5.15;94.08
64713;BME280;51140;45.340;5.980;2023-11-18T08:49:08;99288.72;;;5.37;94.24
64713;BME280;51140;45.340;5.980;2023-11-18T08:51:37;99282.22;;;5.53;92.99
64713;BME280;51140;45.340;5.980;2023-11-18T08:54:03;99274.94;;;5.55;93.09
64713;BME280;51140;45.340;5.980;2023-11-18T08:56:49;99273.13;;;5.36;93.92
64713;BME280;51140;45.340;5.980;2023-11-18T08:59:20;99277.56;;;5.29;93.85
64713;BME280;51140;45.340;5.980;2023-11-18T09:01:51;99274.34;;;5.33;93.65
64713;BME280;51140;45.340;5.980;2023-11-18T09:04:21;99274.34;;;5.33;92.98
64713;BME280;51140;45.340;5.980;2023-11-18T09:06:46;99275.56;;;5.24;92.10
64713;BME280;51140;45.340;5.980;2023-11-18T09:09:13;99263.41;;;5.30;90.34
64713;BME280;51140;45.340;5.980;2023-11-18T09:11:40;99265.38;;;5.80;91.33
64713;BME280;51140;45.340;5.980;2023-11-18T09:14:07;99259.31;;;5.86;88.28
64713;BME280;51140;45.340;5.980;2023-11-18T09:16:33;99252.63;;;5.90;88.17
64713;BME280;51140;45.340;5.980;2023-11-18T09:19:04;99261.34;;;5.91;90.68
64713;BME280;51140;45.340;5.980;2023-11-18T09:21:31;99260.50;;;5.77;92.27
64713;BME280;51140;45.340;5.980;2023-11-18T09:24:00;99261.31;;;5.97;91.15
64713;BME280;51140;45.340;5.980;2023-11-18T09:26:27;99266.16;;;6.00;91.32
64713;BME280;51140;45.340;5.980;2023-11-18T09:28:55;99271.03;;;6.03;91.01
64713;BME280;51140;45.340;5.980;2023-11-18T09:31:21;99279.84;;;6.28;90.20
64713;BME280;51140;45.340;5.980;2023-11-18T09:33:47;99281.47;;;6.29;89.77
64713;BME280;51140;45.340;5.980;2023-11-18T09:36:17;99293.53;;;6.57;88.90
64713;BME280;51140;45.340;5.980;2023-11-18T09:38:43;99280.81;;;6.41;89.62
64713;BME280;51140;45.340;5.980;2023-11-18T09:41:12;99282.81;;;6.45;89.16
64713;BME280;51140;45.340;5.980;2023-11-18T09:43:40;99289.19;;;6.31;91.25
64713;BME280;51140;45.340;5.980;2023-11-18T09:46:11;99292.53;;;6.51;88.83
64713;BME280;51140;45.340;5.980;2023-11-18T09:48:44;99278.34;;;5.82;87.70
64713;BME280;51140;45.340;5.980;2023-11-18T09:51:22;99282.72;;;6.27;87.46
64713;BME280;51140;45.340;5.980;2023-11-18T09:53:53;99274.97;;;6.32;85.39
64713;BME280;51140;45.340;5.980;2023-11-18T09:59:18;99274.00;;;6.26;88.90
64713;BME280;51140;45.340;5.980;2023-11-18T10:01:53;99267.31;;;6.24;86.08
64713;BME280;51140;45.340;5.980;2023-11-18T10:04:23;99275.94;;;6.44;86.74
64713;BME280;51140;45.340;5.980;2023-11-18T10:06:53;99281.31;;;6.69;85.68
64713;BME280;51140;45.340;5.980;2023-11-18T10:09:19;99283.94;;;6.69;86.96
64713;BME280;51140;45.340;5.980;2023-11-18T10:11:53;99279.16;;;6.53;85.63
64713;BME280;51140;45.340;5.980;2023-11-18T10:14:26;99262.25;;;6.67;87.36
64713;BME280;51140;45.340;5.980;2023-11-18T10:16:51;99260.63;;;6.66;86.33
64713;BME280;51140;45.340;5.980;2023-11-18T10:19:19;99266.69;;;6.73;85.62
64713;BME280;51140;45.340;5.980;2023-11-18T10:21:45;99257.28;;;6.77;88.93
64713;BME280;51140;45.340;5.980;2023-11-18T10:24:14;99254.38;;;6.91;85.92
64713;BME280;51140;45.340;5.980;2023-11-18T10:26:42;99245.16;;;7.01;84.31
64713;BME280;51140;45.340;5.980;2023-11-18T10:29:09;99254.53;;;6.97;87.34
64713;BME280;51140;45.340;5.980;2023-11-18T10:31:34;99246.44;;;6.91;88.81
64713;BME280;51140;45.340;5.980;2023-11-18T10:34:10;99227.66;;;6.81;86.87
64713;BME280;51140;45.340;5.980;2023-11-18T10:36:36;99224.91;;;6.95;87.36
64713;BME280;51140;45.340;5.980;2023-11-18T10:39:02;99240.22;;;7.11;87.30
64713;BME280;51140;45.340;5.980;2023-11-18T10:41:40;99238.91;;;6.95;88.89
64713;BME280;51140;45.340;5.980;2023-11-18T10:44:09;99254.66;;;6.77;87.13
64713;BME280;51140;45.340;5.980;2023-11-18T10:46:41;99262.38;;;6.78;84.69
64713;BME280;51140;45.340;5.980;2023-11-18T10:49:06;99246.69;;;6.90;85.28
64713;BME280;51140;45.340;5.980;2023-11-18T10:51:45;99221.56;;;6.81;83.77
64713;BME280;51140;45.340;5.980;2023-11-18T10:54:20;99218.34;;;6.79;84.55
64713;BME280;51140;45.340;5.980;2023-11-18T10:56:51;99237.81;;;6.78;88.09
64713;BME280;51140;45.340;5.980;2023-11-18T10:59:22;99242.94;;;6.73;88.95
64713;BME280;51140;45.340;5.980;2023-11-18T11:01:48;99234.06;;;6.92;88.43
64713;BME280;51140;45.340;5.980;2023-11-18T11:04:14;99226.22;;;7.10;87.25
64713;BME280;51140;45.340;5.980;2023-11-18T11:06:47;99222.00;;;7.03;84.42
64713;BME280;51140;45.340;5.980;2023-11-18T11:09:20;99227.94;;;6.98;85.24
64713;BME280;51140;45.340;5.980;2023-11-18T11:11:59;99225.13;;;6.93;84.14
64713;BME280;51140;45.340;5.980;2023-11-18T11:14:34;99223.41;;;7.05;87.43
64713;BME280;51140;45.340;5.980;2023-11-18T11:17:07;99222.78;;;6.78;87.24
64713;BME280;51140;45.340;5.980;2023-11-18T11:20:01;99226.41;;;6.84;89.19
64713;BME280;51140;45.340;5.980;2023-11-18T11:25:33;99218.34;;;6.79;84.78
64713;BME280;51140;45.340;5.980;2023-11-18T11:28:24;99217.38;;;6.98;86.48
64713;BME280;51140;45.340;5.980;2023-11-18T11:33:41;99209.06;;;6.95;88.91
64713;BME280;51140;45.340;5.980;2023-11-18T11:36:12;99209.56;;;7.10;87.28
64713;BME280;51140;45.340;5.980;2023-11-18T11:38:41;99218.34;;;7.04;86.53
64713;BME280;51140;45.340;5.980;2023-11-18T11:41:12;99210.03;;;7.00;87.97
64713;BME280;51140;45.340;5.980;2023-11-18T11:43:47;99206.53;;;7.06;87.07
64713;BME280;51140;45.340;5.980;2023-11-18T11:46:13;99208.97;;;6.76;84.90
64713;BME280;51140;45.340;5.980;2023-11-18T11:48:39;99215.06;;;6.46;85.92
64713;BME280;51140;45.340;5.980;2023-11-18T11:51:22;99219.75;;;6.44;85.17
64713;BME280;51140;45.340;5.980;2023-11-18T11:54:11;99218.56;;;6.71;87.66
64713;BME280;51140;45.340;5.980;2023-11-18T11:56:44;99219.00;;;6.68;85.47
64713;BME280;51140;45.340;5.980;2023-11-18T11:59:15;99207.38;;;6.75;85.53
64713;BME280;51140;45.340;5.980;2023-11-18T12:01:41;99208.41;;;6.74;87.49
64713;BME280;51140;45.340;5.980;2023-11-18T12:04:12;99210.47;;;6.97;88.37
64713;BME280;51140;45.340;5.980;2023-11-18T12:06:47;99202.63;;;6.90;88.92
64713;BME280;51140;45.340;5.980;2023-11-18T12:09:14;99195.00;;;7.01;86.94
64713;BME280;51140;45.340;5.980;2023-11-18T12:11:46;99186.88;;;7.02;86.64
64713;BME280;51140;45.340;5.980;2023-11-18T12:14:15;99180.00;;;7.01;85.56
64713;BME280;51140;45.340;5.980;2023-11-18T12:17:03;99179.13;;;7.07;86.87
64713;BME280;51140;45.340;5.980;2023-11-18T12:19:37;99186.88;;;7.02;86.57
64713;BME280;51140;45.340;5.980;2023-11-18T12:22:22;99202.66;;;7.09;85.93
64713;BME280;51140;45.340;5.980;2023-11-18T12:27:46;99188.28;;;7.05;86.76
64713;BME280;51140;45.340;5.980;2023-11-18T12:35:35;99193.28;;;6.88;87.52
64713;BME280;51140;45.340;5.980;2023-11-18T12:40:56;99194.78;;;7.02;87.49
64713;BME280;51140;45.340;5.980;2023-11-18T12:43:42;99201.88;;;6.77;88.34
64713;BME280;51140;45.340;5.980;2023-11-18T12:46:47;99198.66;;;7.00;89.67
64713;BME280;51140;45.340;5.980;2023-11-18T12:49:15;99175.22;;;6.60;88.54
64713;BME280;51140;45.340;5.980;2023-11-18T12:51:42;99186.47;;;6.74;91.28
64713;BME280;51140;45.340;5.980;2023-11-18T12:54:14;99203.66;;;6.83;92.13
64713;BME280;51140;45.340;5.980;2023-11-18T12:56:41;99203.00;;;6.63;89.54
64713;BME280;51140;45.340;5.980;2023-11-18T12:59:14;99192.13;;;6.46;91.69
64713;BME280;51140;45.340;5.980;2023-11-18T13:01:43;99187.88;;;6.76;92.06
64713;BME280;51140;45.340;5.980;2023-11-18T13:04:16;99198.06;;;6.73;93.55
64713;BME280;51140;45.340;5.980;2023-11-18T13:06:42;99189.47;;;6.84;92.40
64713;BME280;51140;45.340;5.980;2023-11-18T13:09:08;99177.44;;;6.63;91.71
64713;BME280;51140;45.340;5.980;2023-11-18T13:11:35;99159.31;;;6.73;93.07
64713;BME280;51140;45.340;5.980;2023-11-18T13:14:01;99166.13;;;6.81;93.38
64713;BME280;51140;45.340;5.980;2023-11-18T13:16:28;99173.66;;;6.77;92.72
64713;BME280;51140;45.340;5.980;2023-11-18T13:18:53;99180.31;;;6.55;90.98
64713;BME280;51140;45.340;5.980;2023-11-18T13:21:20;99175.72;;;6.44;91.72
64713;BME280;51140;45.340;5.980;2023-11-18T13:23:52;99173.72;;;6.40;91.79
64713;BME280;51140;45.340;5.980;2023-11-18T13:26:20;99169.50;;;6.63;92.18
64713;BME280;51140;45.340;5.980;2023-11-18T13:28:46;99165.56;;;6.79;91.90
64713;BME280;51140;45.340;5.980;2023-11-18T13:31:13;99155.19;;;6.53;92.05
64713;BME280;51140;45.340;5.980;2023-11-18T13:33:47;99158.75;;;6.65;92.75
64713;BME280;51140;45.340;5.980;2023-11-18T13:36:14;99156.22;;;6.76;92.36
64713;BME280;51140;45.340;5.980;2023-11-18T13:38:40;99150.66;;;6.60;91.80